This is the latest recevied weather packets stored in our database for station/object OE3EMC-13. If no packets are shown the sender has not sent any weather packets the latest 10 day(s).
| Time | Temp. | Humidity | Pressure | Rain* | Wind** | Luminosity | Snow |
|---|---|---|---|---|---|---|---|
| 1777855994 | 13.33° C | 56% | 1100 hPa | 0 mm | - | - | - |
| 1777855393 | 13.33° C | 56% | 1100 hPa | 0 mm | - | - | - |
| 1777854793 | 12.78° C | 58% | 1100 hPa | 0 mm | - | - | - |
| 1777854193 | 12.78° C | 58% | 1100 hPa | 0 mm | - | - | - |
| 1777853592 | 11.67° C | 61% | 1100 hPa | 0 mm | - | - | - |
| 1777852994 | 11.67° C | 61% | 1100 hPa | 0 mm | - | - | - |
| 1777852392 | 11.67° C | 59% | 1100 hPa | 0 mm | - | - | - |
| 1777851792 | 11.67° C | 59% | 1100 hPa | 0 mm | - | - | - |
| 1777851192 | 12.78° C | 55% | 1100 hPa | 0 mm | - | - | - |
| 1777850592 | 12.78° C | 55% | 1100 hPa | 0 mm | - | - | - |
| 1777849991 | 14.44° C | 52% | 1100 hPa | 0 mm | - | - | - |
| 1777849391 | 14.44° C | 52% | 1100 hPa | 0 mm | - | - | - |
| 1777848791 | 15° C | 52% | 1100 hPa | 0 mm | - | - | - |
| 1777848191 | 15° C | 52% | 1100 hPa | 0 mm | - | - | - |
| 1777847591 | 15° C | 52% | 1100 hPa | 0 mm | - | - | - |
| 1777846990 | 15° C | 52% | 1100 hPa | 0 mm | - | - | - |
| 1777846391 | 15° C | 52% | 1100 hPa | 0 mm | - | - | - |
| 1777845790 | 15° C | 52% | 1100 hPa | 0 mm | - | - | - |
| 1777845191 | 14.44° C | 53% | 1100 hPa | 0 mm | - | - | - |
| 1777844590 | 14.44° C | 53% | 1100 hPa | 0 mm | - | - | - |
| 1777843990 | 13.89° C | 54% | 1100 hPa | 0 mm | - | - | - |
| 1777843390 | 13.89° C | 54% | 1100 hPa | 0 mm | - | - | - |
| 1777842790 | 13.89° C | 55% | 1100 hPa | 0 mm | - | - | - |
| 1777842189 | 13.89° C | 55% | 1100 hPa | 0 mm | - | - | - |
| 1777841590 | 13.89° C | 55% | 1100 hPa | 0 mm | - | - | - |
* Rain latest hour (hover to see other rain measurements)
** Current wind speed in m/s (hover to see current wind gust speed)